Accueil
METAR-TAF:

METAR-TAF

Aéroports :

Ouagadougou, Burkina Faso

Aéroport international de Ouagadougou

latitude: 12-21N, longitude: 001-31W, altitude: 316 m

Observation

Le bulletin a été fait il y a 1 heure et 9 minutes, à 20:00 UTC
Vent 1 kt de sud-ouest
Température 35°C
Humidité 28%
Pression 1009 hPa
Visibilité: 8000 m

METAR: DFFD 242000Z 23001KT 8000 NSC 35/14 Q1009 NOSIG

Heure: 21:09 (21:09 UTC)

Prévision

Le bulletin a été fait il y a 4 heures et 9 minutes, à 17:00 UTC
Prévision valable du 24 à 18 UTC au 25 à 24 UTC
Vent 8 kt de ouest/sud-ouest
Visibilité: 8000 m
Probabilité 30% :
Temporairement
du 25 à 15 UTC au 25 à 24 UTC
Quelques nuages à une hauteur de 2600 ft
Quelques nuages à une hauteur de 4000 ft, Cumulonimbus.
orage

TAF: DFFD 241700Z 2418/2524 24008KT 8000 NSC PROB30 TEMPO 2515/2524 TS FEW026 FEW040CB

Observations et prévisions météorologiques de plus de 4000 aéroports (messages METAR et TAF).

Les stations disponibles sont représentées par des disques jaunes et rouges sur la carte.

Passer la souris dessus pour voir le nom de la station.

Cliquer dessus pour voir les observations et prévisions météorologiques.

Pour changer de carte: cliquez sur les boutons verts avec une croix noire pour zoomer, sur le bouton vert avec un tiret pour effectuer un zoom arrière, ou sur les flèches vertes pour les cartes adjacentes.


METAR-TAF: